sensor_id;sensor_type;location;lat;lon;timestamp;P1;durP1;ratioP1;P2;durP2;ratioP2
60975;SDS011;46849;48.154;17.042;2022-08-11T00:00:01;1.88;;;0.90;;
60975;SDS011;46849;48.154;17.042;2022-08-11T00:03:06;1.40;;;0.82;;
60975;SDS011;46849;48.154;17.042;2022-08-11T00:05:53;2.60;;;1.00;;
60975;SDS011;46849;48.154;17.042;2022-08-11T00:08:39;1.35;;;0.80;;
60975;SDS011;46849;48.154;17.042;2022-08-11T00:11:31;2.05;;;1.15;;
60975;SDS011;46849;48.154;17.042;2022-08-11T00:14:21;1.70;;;1.00;;
60975;SDS011;46849;48.154;17.042;2022-08-11T00:19:59;1.45;;;0.80;;
60975;SDS011;46849;48.154;17.042;2022-08-11T00:22:48;1.02;;;0.70;;
60975;SDS011;46849;48.154;17.042;2022-08-11T00:25:41;1.90;;;0.90;;
60975;SDS011;46849;48.154;17.042;2022-08-11T00:28:30;1.05;;;0.80;;
60975;SDS011;46849;48.154;17.042;2022-08-11T00:34:08;1.15;;;0.80;;
60975;SDS011;46849;48.154;17.042;2022-08-11T00:40:02;1.42;;;0.90;;
60975;SDS011;46849;48.154;17.042;2022-08-11T00:43:08;2.58;;;1.10;;
60975;SDS011;46849;48.154;17.042;2022-08-11T00:49:17;1.52;;;0.93;;
60975;SDS011;46849;48.154;17.042;2022-08-11T00:58:42;3.17;;;0.90;;
60975;SDS011;46849;48.154;17.042;2022-08-11T01:14:15;1.40;;;0.88;;
60975;SDS011;46849;48.154;17.042;2022-08-11T01:48:48;1.75;;;0.95;;
60975;SDS011;46849;48.154;17.042;2022-08-11T01:52:14;1.88;;;1.10;;
60975;SDS011;46849;48.154;17.042;2022-08-11T01:58:20;1.83;;;1.02;;
60975;SDS011;46849;48.154;17.042;2022-08-11T02:07:18;1.52;;;1.10;;
60975;SDS011;46849;48.154;17.042;2022-08-11T02:23:00;1.20;;;1.00;;
60975;SDS011;46849;48.154;17.042;2022-08-11T02:29:08;2.38;;;1.17;;
60975;SDS011;46849;48.154;17.042;2022-08-11T02:32:21;2.65;;;1.30;;
60975;SDS011;46849;48.154;17.042;2022-08-11T02:35:46;2.03;;;0.90;;
60975;SDS011;46849;48.154;17.042;2022-08-11T02:38:50;2.22;;;1.00;;
60975;SDS011;46849;48.154;17.042;2022-08-11T02:44:46;1.92;;;1.00;;
60975;SDS011;46849;48.154;17.042;2022-08-11T02:48:07;3.70;;;1.13;;
60975;SDS011;46849;48.154;17.042;2022-08-11T03:00:24;1.58;;;1.00;;
60975;SDS011;46849;48.154;17.042;2022-08-11T03:03:19;2.25;;;0.98;;
60975;SDS011;46849;48.154;17.042;2022-08-11T03:06:11;2.85;;;1.00;;
60975;SDS011;46849;48.154;17.042;2022-08-11T03:09:13;1.58;;;0.80;;
60975;SDS011;46849;48.154;17.042;2022-08-11T03:12:15;1.90;;;0.95;;
60975;SDS011;46849;48.154;17.042;2022-08-11T03:15:27;1.38;;;0.93;;
60975;SDS011;46849;48.154;17.042;2022-08-11T03:18:49;1.25;;;0.80;;
60975;SDS011;46849;48.154;17.042;2022-08-11T03:24:52;1.98;;;0.98;;
60975;SDS011;46849;48.154;17.042;2022-08-11T03:27:59;2.10;;;0.90;;
60975;SDS011;46849;48.154;17.042;2022-08-11T03:30:53;2.33;;;1.20;;
60975;SDS011;46849;48.154;17.042;2022-08-11T03:40:38;2.28;;;1.15;;
60975;SDS011;46849;48.154;17.042;2022-08-11T03:47:17;1.25;;;0.90;;
60975;SDS011;46849;48.154;17.042;2022-08-11T04:25:28;1.65;;;0.77;;
60975;SDS011;46849;48.154;17.042;2022-08-11T04:48:37;1.75;;;0.82;;
60975;SDS011;46849;48.154;17.042;2022-08-11T05:04:55;2.25;;;1.10;;
60975;SDS011;46849;48.154;17.042;2022-08-11T05:14:29;2.88;;;0.90;;
60975;SDS011;46849;48.154;17.042;2022-08-11T05:17:38;1.95;;;1.00;;
60975;SDS011;46849;48.154;17.042;2022-08-11T05:20:50;1.30;;;0.70;;
60975;SDS011;46849;48.154;17.042;2022-08-11T05:24:02;1.13;;;0.80;;
60975;SDS011;46849;48.154;17.042;2022-08-11T05:27:14;1.20;;;0.75;;
60975;SDS011;46849;48.154;17.042;2022-08-11T05:30:19;2.20;;;1.25;;
60975;SDS011;46849;48.154;17.042;2022-08-11T05:33:47;1.92;;;1.00;;
60975;SDS011;46849;48.154;17.042;2022-08-11T05:37:03;2.70;;;1.20;;
60975;SDS011;46849;48.154;17.042;2022-08-11T05:39:52;1.50;;;0.93;;
60975;SDS011;46849;48.154;17.042;2022-08-11T05:43:03;1.85;;;1.02;;
60975;SDS011;46849;48.154;17.042;2022-08-11T05:46:14;3.55;;;1.50;;
60975;SDS011;46849;48.154;17.042;2022-08-11T05:49:18;2.40;;;1.30;;
60975;SDS011;46849;48.154;17.042;2022-08-11T05:52:26;3.58;;;1.77;;
60975;SDS011;46849;48.154;17.042;2022-08-11T05:55:31;2.50;;;1.70;;
60975;SDS011;46849;48.154;17.042;2022-08-11T05:58:36;3.80;;;2.00;;
60975;SDS011;46849;48.154;17.042;2022-08-11T06:01:26;1.77;;;1.00;;
60975;SDS011;46849;48.154;17.042;2022-08-11T06:04:19;2.22;;;1.77;;
60975;SDS011;46849;48.154;17.042;2022-08-11T06:07:10;4.30;;;1.45;;
60975;SDS011;46849;48.154;17.042;2022-08-11T06:10:04;2.50;;;1.40;;
60975;SDS011;46849;48.154;17.042;2022-08-11T06:13:31;3.58;;;1.88;;
60975;SDS011;46849;48.154;17.042;2022-08-11T06:16:24;2.58;;;1.75;;
60975;SDS011;46849;48.154;17.042;2022-08-11T06:19:12;3.95;;;1.80;;
60975;SDS011;46849;48.154;17.042;2022-08-11T06:21:57;3.53;;;1.33;;
60975;SDS011;46849;48.154;17.042;2022-08-11T06:24:50;5.68;;;2.10;;
60975;SDS011;46849;48.154;17.042;2022-08-11T06:27:37;3.47;;;2.10;;
60975;SDS011;46849;48.154;17.042;2022-08-11T06:30:36;6.53;;;2.40;;
60975;SDS011;46849;48.154;17.042;2022-08-11T06:33:29;5.20;;;2.17;;
60975;SDS011;46849;48.154;17.042;2022-08-11T06:39:44;4.50;;;2.13;;
60975;SDS011;46849;48.154;17.042;2022-08-11T06:48:15;9.32;;;2.10;;
60975;SDS011;46849;48.154;17.042;2022-08-11T06:51:03;3.45;;;2.15;;
60975;SDS011;46849;48.154;17.042;2022-08-11T06:54:00;2.40;;;1.52;;
60975;SDS011;46849;48.154;17.042;2022-08-11T06:56:45;4.97;;;1.33;;
60975;SDS011;46849;48.154;17.042;2022-08-11T06:59:50;6.28;;;2.25;;
60975;SDS011;46849;48.154;17.042;2022-08-11T07:03:09;6.75;;;1.92;;
60975;SDS011;46849;48.154;17.042;2022-08-11T07:13:01;4.20;;;1.58;;
60975;SDS011;46849;48.154;17.042;2022-08-11T07:16:06;5.03;;;1.73;;
60975;SDS011;46849;48.154;17.042;2022-08-11T07:18:51;4.82;;;1.70;;
60975;SDS011;46849;48.154;17.042;2022-08-11T07:22:02;3.97;;;1.92;;
60975;SDS011;46849;48.154;17.042;2022-08-11T07:25:13;3.75;;;1.88;;
60975;SDS011;46849;48.154;17.042;2022-08-11T07:28:21;6.38;;;2.20;;
60975;SDS011;46849;48.154;17.042;2022-08-11T07:31:37;2.50;;;1.63;;
60975;SDS011;46849;48.154;17.042;2022-08-11T07:34:27;5.07;;;1.80;;
60975;SDS011;46849;48.154;17.042;2022-08-11T07:37:19;6.00;;;1.63;;
60975;SDS011;46849;48.154;17.042;2022-08-11T07:40:06;3.15;;;1.52;;
60975;SDS011;46849;48.154;17.042;2022-08-11T07:42:51;3.80;;;1.70;;
60975;SDS011;46849;48.154;17.042;2022-08-11T07:45:41;4.40;;;1.40;;
60975;SDS011;46849;48.154;17.042;2022-08-11T07:48:46;5.15;;;1.77;;
60975;SDS011;46849;48.154;17.042;2022-08-11T07:51:49;4.80;;;1.50;;
60975;SDS011;46849;48.154;17.042;2022-08-11T07:54:56;2.70;;;1.77;;
60975;SDS011;46849;48.154;17.042;2022-08-11T07:57:44;4.72;;;1.55;;
60975;SDS011;46849;48.154;17.042;2022-08-11T08:00:54;3.45;;;1.70;;
60975;SDS011;46849;48.154;17.042;2022-08-11T08:04:00;3.35;;;1.40;;
60975;SDS011;46849;48.154;17.042;2022-08-11T08:07:04;2.80;;;1.40;;
60975;SDS011;46849;48.154;17.042;2022-08-11T08:10:11;4.57;;;1.80;;
60975;SDS011;46849;48.154;17.042;2022-08-11T08:13:19;7.18;;;1.60;;
60975;SDS011;46849;48.154;17.042;2022-08-11T08:16:22;2.90;;;1.42;;
60975;SDS011;46849;48.154;17.042;2022-08-11T08:19:26;2.35;;;1.35;;
60975;SDS011;46849;48.154;17.042;2022-08-11T08:22:14;2.60;;;1.15;;
60975;SDS011;46849;48.154;17.042;2022-08-11T08:25:01;1.70;;;1.02;;
60975;SDS011;46849;48.154;17.042;2022-08-11T08:27:47;6.60;;;1.10;;
60975;SDS011;46849;48.154;17.042;2022-08-11T08:30:34;1.48;;;1.05;;
60975;SDS011;46849;48.154;17.042;2022-08-11T08:33:33;1.85;;;0.98;;
60975;SDS011;46849;48.154;17.042;2022-08-11T08:36:20;2.17;;;1.20;;
60975;SDS011;46849;48.154;17.042;2022-08-11T08:39:06;2.60;;;1.05;;
60975;SDS011;46849;48.154;17.042;2022-08-11T08:41:51;0.98;;;0.77;;
60975;SDS011;46849;48.154;17.042;2022-08-11T08:44:40;1.92;;;1.27;;
60975;SDS011;46849;48.154;17.042;2022-08-11T08:47:28;1.38;;;0.85;;
60975;SDS011;46849;48.154;17.042;2022-08-11T08:50:14;2.78;;;1.00;;
60975;SDS011;46849;48.154;17.042;2022-08-11T08:53:06;1.42;;;0.75;;
60975;SDS011;46849;48.154;17.042;2022-08-11T08:55:52;2.00;;;1.00;;
60975;SDS011;46849;48.154;17.042;2022-08-11T08:58:40;1.80;;;1.00;;
60975;SDS011;46849;48.154;17.042;2022-08-11T09:01:30;1.63;;;0.82;;
60975;SDS011;46849;48.154;17.042;2022-08-11T09:04:19;4.00;;;0.75;;
60975;SDS011;46849;48.154;17.042;2022-08-11T09:07:08;2.33;;;0.90;;
60975;SDS011;46849;48.154;17.042;2022-08-11T09:09:56;2.53;;;0.95;;
60975;SDS011;46849;48.154;17.042;2022-08-11T09:12:42;1.33;;;0.80;;
60975;SDS011;46849;48.154;17.042;2022-08-11T09:15:29;1.48;;;0.80;;
60975;SDS011;46849;48.154;17.042;2022-08-11T09:18:14;1.80;;;0.60;;
60975;SDS011;46849;48.154;17.042;2022-08-11T09:21:01;1.30;;;0.50;;
60975;SDS011;46849;48.154;17.042;2022-08-11T09:23:47;0.90;;;0.55;;
60975;SDS011;46849;48.154;17.042;2022-08-11T09:26:52;1.52;;;0.80;;
60975;SDS011;46849;48.154;17.042;2022-08-11T09:29:46;2.83;;;0.80;;
60975;SDS011;46849;48.154;17.042;2022-08-11T09:32:31;1.77;;;0.93;;
60975;SDS011;46849;48.154;17.042;2022-08-11T09:35:17;2.13;;;0.70;;
60975;SDS011;46849;48.154;17.042;2022-08-11T09:38:03;1.00;;;0.50;;
60975;SDS011;46849;48.154;17.042;2022-08-11T09:41:08;1.50;;;0.80;;
60975;SDS011;46849;48.154;17.042;2022-08-11T09:43:54;2.85;;;0.82;;
60975;SDS011;46849;48.154;17.042;2022-08-11T09:46:58;1.45;;;0.82;;
60975;SDS011;46849;48.154;17.042;2022-08-11T09:49:44;2.58;;;0.80;;
60975;SDS011;46849;48.154;17.042;2022-08-11T09:52:34;1.15;;;0.65;;
60975;SDS011;46849;48.154;17.042;2022-08-11T09:55:21;2.33;;;0.80;;
60975;SDS011;46849;48.154;17.042;2022-08-11T09:58:06;2.38;;;0.75;;
60975;SDS011;46849;48.154;17.042;2022-08-11T10:00:57;2.28;;;0.90;;
60975;SDS011;46849;48.154;17.042;2022-08-11T10:03:45;2.22;;;0.90;;
60975;SDS011;46849;48.154;17.042;2022-08-11T10:06:31;3.40;;;1.75;;
60975;SDS011;46849;48.154;17.042;2022-08-11T10:09:39;1.05;;;0.70;;
60975;SDS011;46849;48.154;17.042;2022-08-11T10:12:31;2.72;;;0.77;;
60975;SDS011;46849;48.154;17.042;2022-08-11T10:15:20;2.55;;;0.80;;
60975;SDS011;46849;48.154;17.042;2022-08-11T10:18:18;1.08;;;0.68;;
60975;SDS011;46849;48.154;17.042;2022-08-11T10:21:29;2.40;;;0.82;;
60975;SDS011;46849;48.154;17.042;2022-08-11T10:24:20;1.60;;;0.70;;
60975;SDS011;46849;48.154;17.042;2022-08-11T10:27:23;1.80;;;0.98;;
60975;SDS011;46849;48.154;17.042;2022-08-11T10:30:08;1.15;;;0.60;;
60975;SDS011;46849;48.154;17.042;2022-08-11T10:33:12;1.60;;;0.90;;
60975;SDS011;46849;48.154;17.042;2022-08-11T10:36:16;1.90;;;0.95;;
60975;SDS011;46849;48.154;17.042;2022-08-11T10:39:03;1.33;;;0.60;;
60975;SDS011;46849;48.154;17.042;2022-08-11T10:41:50;1.40;;;0.70;;
60975;SDS011;46849;48.154;17.042;2022-08-11T10:44:56;1.80;;;0.73;;
60975;SDS011;46849;48.154;17.042;2022-08-11T10:47:45;1.77;;;0.88;;
60975;SDS011;46849;48.154;17.042;2022-08-11T10:50:29;1.60;;;0.80;;
60975;SDS011;46849;48.154;17.042;2022-08-11T10:53:34;1.90;;;0.80;;
60975;SDS011;46849;48.154;17.042;2022-08-11T10:56:41;3.53;;;0.70;;
60975;SDS011;46849;48.154;17.042;2022-08-11T10:59:44;4.10;;;1.48;;
60975;SDS011;46849;48.154;17.042;2022-08-11T11:02:30;1.83;;;1.05;;
60975;SDS011;46849;48.154;17.042;2022-08-11T11:05:27;2.13;;;0.90;;
60975;SDS011;46849;48.154;17.042;2022-08-11T11:08:14;1.30;;;0.60;;
60975;SDS011;46849;48.154;17.042;2022-08-11T11:11:22;1.38;;;0.70;;
60975;SDS011;46849;48.154;17.042;2022-08-11T11:14:29;2.83;;;0.70;;
60975;SDS011;46849;48.154;17.042;2022-08-11T11:17:39;4.00;;;0.60;;
60975;SDS011;46849;48.154;17.042;2022-08-11T11:20:47;1.73;;;0.75;;
60975;SDS011;46849;48.154;17.042;2022-08-11T11:27:01;1.55;;;0.80;;
60975;SDS011;46849;48.154;17.042;2022-08-11T11:30:09;3.28;;;0.80;;
60975;SDS011;46849;48.154;17.042;2022-08-11T11:33:10;0.90;;;0.60;;
60975;SDS011;46849;48.154;17.042;2022-08-11T11:39:09;2.42;;;0.77;;
60975;SDS011;46849;48.154;17.042;2022-08-11T11:41:56;1.65;;;0.90;;
60975;SDS011;46849;48.154;17.042;2022-08-11T11:44:43;1.05;;;0.60;;
60975;SDS011;46849;48.154;17.042;2022-08-11T11:47:30;1.25;;;0.60;;
60975;SDS011;46849;48.154;17.042;2022-08-11T11:50:15;2.45;;;0.63;;
60975;SDS011;46849;48.154;17.042;2022-08-11T11:53:03;1.85;;;0.75;;
60975;SDS011;46849;48.154;17.042;2022-08-11T11:55:50;1.70;;;0.47;;
60975;SDS011;46849;48.154;17.042;2022-08-11T11:58:36;1.10;;;0.60;;
60975;SDS011;46849;48.154;17.042;2022-08-11T12:01:42;1.45;;;0.98;;
60975;SDS011;46849;48.154;17.042;2022-08-11T12:04:28;4.72;;;0.70;;
60975;SDS011;46849;48.154;17.042;2022-08-11T12:07:14;2.60;;;0.73;;
60975;SDS011;46849;48.154;17.042;2022-08-11T12:10:18;1.30;;;0.70;;
60975;SDS011;46849;48.154;17.042;2022-08-11T12:13:04;1.00;;;0.50;;
60975;SDS011;46849;48.154;17.042;2022-08-11T12:16:09;3.97;;;0.90;;
60975;SDS011;46849;48.154;17.042;2022-08-11T12:18:57;1.48;;;0.73;;
60975;SDS011;46849;48.154;17.042;2022-08-11T12:21:44;2.03;;;0.70;;
60975;SDS011;46849;48.154;17.042;2022-08-11T12:24:47;1.95;;;0.77;;
60975;SDS011;46849;48.154;17.042;2022-08-11T12:27:54;0.85;;;0.65;;
60975;SDS011;46849;48.154;17.042;2022-08-11T12:30:39;5.95;;;0.65;;
60975;SDS011;46849;48.154;17.042;2022-08-11T12:33:26;0.95;;;0.50;;
60975;SDS011;46849;48.154;17.042;2022-08-11T12:36:11;1.25;;;0.73;;
60975;SDS011;46849;48.154;17.042;2022-08-11T12:38:59;1.40;;;0.52;;
60975;SDS011;46849;48.154;17.042;2022-08-11T12:41:49;1.00;;;0.60;;
60975;SDS011;46849;48.154;17.042;2022-08-11T12:44:52;1.75;;;0.98;;
60975;SDS011;46849;48.154;17.042;2022-08-11T12:48:40;1.30;;;0.73;;
60975;SDS011;46849;48.154;17.042;2022-08-11T12:51:28;1.30;;;0.45;;
60975;SDS011;46849;48.154;17.042;2022-08-11T12:57:48;1.95;;;0.75;;
60975;SDS011;46849;48.154;17.042;2022-08-11T13:00:52;0.85;;;0.57;;
60975;SDS011;46849;48.154;17.042;2022-08-11T13:03:56;1.60;;;0.73;;
60975;SDS011;46849;48.154;17.042;2022-08-11T13:07:00;1.23;;;0.68;;
60975;SDS011;46849;48.154;17.042;2022-08-11T13:09:47;1.00;;;0.60;;
60975;SDS011;46849;48.154;17.042;2022-08-11T13:12:33;1.65;;;0.50;;
60975;SDS011;46849;48.154;17.042;2022-08-11T13:15:31;0.82;;;0.52;;
60975;SDS011;46849;48.154;17.042;2022-08-11T13:18:20;2.97;;;0.75;;
60975;SDS011;46849;48.154;17.042;2022-08-11T13:21:06;2.58;;;0.68;;
60975;SDS011;46849;48.154;17.042;2022-08-11T13:23:57;1.15;;;0.68;;
60975;SDS011;46849;48.154;17.042;2022-08-11T13:26:44;1.27;;;0.70;;
60975;SDS011;46849;48.154;17.042;2022-08-11T13:29:31;3.40;;;0.32;;
60975;SDS011;46849;48.154;17.042;2022-08-11T13:32:20;0.73;;;0.45;;
60975;SDS011;46849;48.154;17.042;2022-08-11T13:35:07;1.33;;;0.80;;
60975;SDS011;46849;48.154;17.042;2022-08-11T13:37:53;1.50;;;0.75;;
60975;SDS011;46849;48.154;17.042;2022-08-11T13:40:40;1.92;;;0.70;;
60975;SDS011;46849;48.154;17.042;2022-08-11T13:43:26;1.02;;;0.73;;
60975;SDS011;46849;48.154;17.042;2022-08-11T13:46:13;2.78;;;0.68;;
60975;SDS011;46849;48.154;17.042;2022-08-11T13:49:03;1.95;;;0.60;;
60975;SDS011;46849;48.154;17.042;2022-08-11T13:51:53;0.70;;;0.50;;
60975;SDS011;46849;48.154;17.042;2022-08-11T13:54:39;2.42;;;0.80;;
60975;SDS011;46849;48.154;17.042;2022-08-11T13:57:25;3.17;;;0.70;;
60975;SDS011;46849;48.154;17.042;2022-08-11T14:00:16;1.58;;;0.70;;
60975;SDS011;46849;48.154;17.042;2022-08-11T14:03:02;1.30;;;0.60;;
60975;SDS011;46849;48.154;17.042;2022-08-11T14:05:52;2.33;;;0.73;;
60975;SDS011;46849;48.154;17.042;2022-08-11T14:08:40;1.40;;;0.70;;
60975;SDS011;46849;48.154;17.042;2022-08-11T14:11:27;1.67;;;0.88;;
60975;SDS011;46849;48.154;17.042;2022-08-11T14:14:32;1.42;;;0.93;;
60975;SDS011;46849;48.154;17.042;2022-08-11T14:17:18;1.65;;;0.65;;
60975;SDS011;46849;48.154;17.042;2022-08-11T14:20:05;2.10;;;0.90;;
60975;SDS011;46849;48.154;17.042;2022-08-11T14:22:53;2.35;;;0.80;;
60975;SDS011;46849;48.154;17.042;2022-08-11T14:25:40;1.65;;;0.70;;
60975;SDS011;46849;48.154;17.042;2022-08-11T14:28:45;1.42;;;0.80;;
60975;SDS011;46849;48.154;17.042;2022-08-11T14:31:31;2.30;;;0.85;;
60975;SDS011;46849;48.154;17.042;2022-08-11T14:34:18;1.63;;;0.80;;
60975;SDS011;46849;48.154;17.042;2022-08-11T14:37:09;2.67;;;0.68;;
60975;SDS011;46849;48.154;17.042;2022-08-11T14:39:57;2.03;;;0.65;;
60975;SDS011;46849;48.154;17.042;2022-08-11T14:42:44;2.30;;;0.57;;
60975;SDS011;46849;48.154;17.042;2022-08-11T14:45:48;1.33;;;0.70;;
60975;SDS011;46849;48.154;17.042;2022-08-11T14:48:52;2.33;;;0.80;;
60975;SDS011;46849;48.154;17.042;2022-08-11T14:51:39;1.55;;;0.70;;
60975;SDS011;46849;48.154;17.042;2022-08-11T14:54:26;1.42;;;0.65;;
60975;SDS011;46849;48.154;17.042;2022-08-11T14:57:35;1.80;;;0.68;;
60975;SDS011;46849;48.154;17.042;2022-08-11T15:00:21;1.17;;;0.50;;
60975;SDS011;46849;48.154;17.042;2022-08-11T15:03:09;1.85;;;0.70;;
60975;SDS011;46849;48.154;17.042;2022-08-11T15:05:56;1.88;;;0.60;;
60975;SDS011;46849;48.154;17.042;2022-08-11T15:08:44;3.22;;;0.65;;
60975;SDS011;46849;48.154;17.042;2022-08-11T15:11:38;0.95;;;0.50;;
60975;SDS011;46849;48.154;17.042;2022-08-11T15:14:43;4.45;;;0.70;;
60975;SDS011;46849;48.154;17.042;2022-08-11T15:17:47;1.20;;;0.70;;
60975;SDS011;46849;48.154;17.042;2022-08-11T15:20:35;2.05;;;0.80;;
60975;SDS011;46849;48.154;17.042;2022-08-11T15:23:38;2.38;;;0.70;;
60975;SDS011;46849;48.154;17.042;2022-08-11T15:26:43;1.63;;;0.60;;
60975;SDS011;46849;48.154;17.042;2022-08-11T15:29:47;1.55;;;0.60;;
60975;SDS011;46849;48.154;17.042;2022-08-11T15:32:53;0.80;;;0.60;;
60975;SDS011;46849;48.154;17.042;2022-08-11T15:35:59;1.95;;;1.00;;
60975;SDS011;46849;48.154;17.042;2022-08-11T15:39:07;1.52;;;0.60;;
60975;SDS011;46849;48.154;17.042;2022-08-11T15:42:01;1.75;;;0.80;;
60975;SDS011;46849;48.154;17.042;2022-08-11T15:45:09;2.33;;;0.77;;
60975;SDS011;46849;48.154;17.042;2022-08-11T15:48:21;0.90;;;0.50;;
60975;SDS011;46849;48.154;17.042;2022-08-11T15:51:11;1.95;;;0.75;;
60975;SDS011;46849;48.154;17.042;2022-08-11T15:54:10;2.17;;;0.75;;
60975;SDS011;46849;48.154;17.042;2022-08-11T15:56:59;1.20;;;0.75;;
60975;SDS011;46849;48.154;17.042;2022-08-11T15:59:45;0.98;;;0.60;;
60975;SDS011;46849;48.154;17.042;2022-08-11T16:02:55;0.88;;;0.50;;
60975;SDS011;46849;48.154;17.042;2022-08-11T16:06:01;1.67;;;0.70;;
60975;SDS011;46849;48.154;17.042;2022-08-11T16:08:47;2.00;;;0.70;;
60975;SDS011;46849;48.154;17.042;2022-08-11T16:11:33;1.52;;;0.73;;
60975;SDS011;46849;48.154;17.042;2022-08-11T16:14:18;1.42;;;0.63;;
60975;SDS011;46849;48.154;17.042;2022-08-11T16:17:25;2.42;;;0.60;;
60975;SDS011;46849;48.154;17.042;2022-08-11T16:20:14;0.93;;;0.63;;
60975;SDS011;46849;48.154;17.042;2022-08-11T16:23:04;2.05;;;0.60;;
60975;SDS011;46849;48.154;17.042;2022-08-11T16:25:50;1.15;;;0.40;;
60975;SDS011;46849;48.154;17.042;2022-08-11T16:28:37;5.20;;;0.90;;
60975;SDS011;46849;48.154;17.042;2022-08-11T16:31:27;1.48;;;0.80;;
60975;SDS011;46849;48.154;17.042;2022-08-11T16:34:13;1.20;;;0.68;;
60975;SDS011;46849;48.154;17.042;2022-08-11T16:37:19;2.35;;;0.60;;
60975;SDS011;46849;48.154;17.042;2022-08-11T16:40:25;1.40;;;0.50;;
60975;SDS011;46849;48.154;17.042;2022-08-11T16:43:11;2.10;;;0.75;;
60975;SDS011;46849;48.154;17.042;2022-08-11T16:46:18;1.48;;;0.75;;
60975;SDS011;46849;48.154;17.042;2022-08-11T16:49:41;2.25;;;0.80;;
60975;SDS011;46849;48.154;17.042;2022-08-11T16:52:29;0.85;;;0.50;;
60975;SDS011;46849;48.154;17.042;2022-08-11T16:55:15;1.48;;;0.65;;
60975;SDS011;46849;48.154;17.042;2022-08-11T16:58:06;2.63;;;0.80;;
60975;SDS011;46849;48.154;17.042;2022-08-11T17:01:11;2.10;;;0.93;;
60975;SDS011;46849;48.154;17.042;2022-08-11T17:04:08;2.40;;;1.30;;
60975;SDS011;46849;48.154;17.042;2022-08-11T17:07:26;0.88;;;0.60;;
60975;SDS011;46849;48.154;17.042;2022-08-11T17:10:33;2.90;;;0.60;;
60975;SDS011;46849;48.154;17.042;2022-08-11T17:13:45;2.20;;;0.80;;
60975;SDS011;46849;48.154;17.042;2022-08-11T17:16:38;1.77;;;1.13;;
60975;SDS011;46849;48.154;17.042;2022-08-11T17:19:26;1.45;;;0.70;;
60975;SDS011;46849;48.154;17.042;2022-08-11T17:22:17;1.75;;;0.60;;
60975;SDS011;46849;48.154;17.042;2022-08-11T17:25:23;1.95;;;0.70;;
60975;SDS011;46849;48.154;17.042;2022-08-11T17:28:11;1.10;;;0.55;;
60975;SDS011;46849;48.154;17.042;2022-08-11T17:31:00;2.88;;;0.80;;
60975;SDS011;46849;48.154;17.042;2022-08-11T17:34:07;1.00;;;0.50;;
60975;SDS011;46849;48.154;17.042;2022-08-11T17:37:14;1.95;;;0.80;;
60975;SDS011;46849;48.154;17.042;2022-08-11T17:40:00;2.63;;;0.90;;
60975;SDS011;46849;48.154;17.042;2022-08-11T17:42:49;1.02;;;0.60;;
60975;SDS011;46849;48.154;17.042;2022-08-11T17:45:57;0.93;;;0.55;;
60975;SDS011;46849;48.154;17.042;2022-08-11T17:48:52;2.33;;;0.50;;
60975;SDS011;46849;48.154;17.042;2022-08-11T17:51:37;0.88;;;0.60;;
60975;SDS011;46849;48.154;17.042;2022-08-11T17:54:44;1.52;;;0.60;;
60975;SDS011;46849;48.154;17.042;2022-08-11T17:57:47;2.70;;;0.80;;
60975;SDS011;46849;48.154;17.042;2022-08-11T18:01:04;2.58;;;0.50;;
60975;SDS011;46849;48.154;17.042;2022-08-11T18:07:02;2.55;;;0.68;;
60975;SDS011;46849;48.154;17.042;2022-08-11T18:09:47;1.63;;;0.65;;
60975;SDS011;46849;48.154;17.042;2022-08-11T18:12:51;1.63;;;0.70;;
60975;SDS011;46849;48.154;17.042;2022-08-11T18:15:56;1.55;;;0.50;;
60975;SDS011;46849;48.154;17.042;2022-08-11T18:19:00;2.35;;;0.70;;
60975;SDS011;46849;48.154;17.042;2022-08-11T18:22:08;1.17;;;0.65;;
60975;SDS011;46849;48.154;17.042;2022-08-11T18:25:51;1.45;;;0.70;;
60975;SDS011;46849;48.154;17.042;2022-08-11T18:28:49;2.10;;;0.60;;
60975;SDS011;46849;48.154;17.042;2022-08-11T18:31:57;1.30;;;0.60;;
60975;SDS011;46849;48.154;17.042;2022-08-11T18:35:03;1.10;;;0.73;;
60975;SDS011;46849;48.154;17.042;2022-08-11T18:38:09;0.77;;;0.50;;
60975;SDS011;46849;48.154;17.042;2022-08-11T18:41:15;1.35;;;0.77;;
60975;SDS011;46849;48.154;17.042;2022-08-11T18:44:20;3.08;;;0.77;;
60975;SDS011;46849;48.154;17.042;2022-08-11T18:47:30;1.58;;;0.88;;
60975;SDS011;46849;48.154;17.042;2022-08-11T18:50:35;1.20;;;0.60;;
60975;SDS011;46849;48.154;17.042;2022-08-11T18:53:41;2.20;;;0.73;;
60975;SDS011;46849;48.154;17.042;2022-08-11T18:56:49;2.13;;;1.17;;
60975;SDS011;46849;48.154;17.042;2022-08-11T18:59:53;1.63;;;0.70;;
60975;SDS011;46849;48.154;17.042;2022-08-11T19:02:59;1.45;;;0.70;;
60975;SDS011;46849;48.154;17.042;2022-08-11T19:06:04;2.35;;;0.85;;
60975;SDS011;46849;48.154;17.042;2022-08-11T19:09:11;2.70;;;0.77;;
60975;SDS011;46849;48.154;17.042;2022-08-11T19:12:16;1.10;;;0.63;;
60975;SDS011;46849;48.154;17.042;2022-08-11T19:15:21;2.05;;;0.85;;
60975;SDS011;46849;48.154;17.042;2022-08-11T19:18:25;0.77;;;0.47;;
60975;SDS011;46849;48.154;17.042;2022-08-11T19:21:30;1.48;;;0.70;;
60975;SDS011;46849;48.154;17.042;2022-08-11T19:24:36;1.60;;;0.65;;
60975;SDS011;46849;48.154;17.042;2022-08-11T19:27:41;0.93;;;0.60;;
60975;SDS011;46849;48.154;17.042;2022-08-11T19:30:47;1.83;;;0.82;;
60975;SDS011;46849;48.154;17.042;2022-08-11T19:33:53;2.88;;;1.65;;
60975;SDS011;46849;48.154;17.042;2022-08-11T19:36:57;1.33;;;0.60;;
60975;SDS011;46849;48.154;17.042;2022-08-11T19:40:05;1.20;;;0.60;;
60975;SDS011;46849;48.154;17.042;2022-08-11T19:43:10;0.85;;;0.52;;
60975;SDS011;46849;48.154;17.042;2022-08-11T19:46:14;1.23;;;0.63;;
60975;SDS011;46849;48.154;17.042;2022-08-11T19:49:19;1.23;;;0.50;;
60975;SDS011;46849;48.154;17.042;2022-08-11T19:52:23;2.83;;;0.60;;
60975;SDS011;46849;48.154;17.042;2022-08-11T19:55:27;1.10;;;0.60;;
60975;SDS011;46849;48.154;17.042;2022-08-11T19:58:33;0.80;;;0.50;;
60975;SDS011;46849;48.154;17.042;2022-08-11T20:01:38;2.60;;;0.50;;
60975;SDS011;46849;48.154;17.042;2022-08-11T20:04:43;2.08;;;0.63;;
60975;SDS011;46849;48.154;17.042;2022-08-11T20:07:47;2.30;;;0.55;;
60975;SDS011;46849;48.154;17.042;2022-08-11T20:10:52;1.10;;;0.60;;
60975;SDS011;46849;48.154;17.042;2022-08-11T20:13:56;1.20;;;0.50;;
60975;SDS011;46849;48.154;17.042;2022-08-11T20:17:02;2.78;;;0.70;;
60975;SDS011;46849;48.154;17.042;2022-08-11T20:20:07;0.63;;;0.45;;
60975;SDS011;46849;48.154;17.042;2022-08-11T20:23:13;1.25;;;0.70;;
60975;SDS011;46849;48.154;17.042;2022-08-11T20:26:18;1.60;;;0.57;;
60975;SDS011;46849;48.154;17.042;2022-08-11T20:29:23;1.13;;;0.50;;
60975;SDS011;46849;48.154;17.042;2022-08-11T20:32:30;1.85;;;0.52;;
60975;SDS011;46849;48.154;17.042;2022-08-11T20:35:33;2.35;;;0.60;;
60975;SDS011;46849;48.154;17.042;2022-08-11T20:38:37;1.08;;;0.65;;
60975;SDS011;46849;48.154;17.042;2022-08-11T20:41:43;1.55;;;0.70;;
60975;SDS011;46849;48.154;17.042;2022-08-11T20:44:49;2.03;;;0.68;;
60975;SDS011;46849;48.154;17.042;2022-08-11T20:47:54;2.05;;;0.60;;
60975;SDS011;46849;48.154;17.042;2022-08-11T20:51:00;0.73;;;0.47;;
60975;SDS011;46849;48.154;17.042;2022-08-11T20:54:03;1.63;;;0.60;;
60975;SDS011;46849;48.154;17.042;2022-08-11T20:57:09;0.90;;;0.45;;
60975;SDS011;46849;48.154;17.042;2022-08-11T21:00:14;1.33;;;0.68;;
60975;SDS011;46849;48.154;17.042;2022-08-11T21:03:19;0.98;;;0.60;;
60975;SDS011;46849;48.154;17.042;2022-08-11T21:06:25;1.95;;;0.63;;
60975;SDS011;46849;48.154;17.042;2022-08-11T21:09:30;1.02;;;0.55;;